sensor_id;sensor_type;location;lat;lon;timestamp;pressure;altitude;pressure_sealevel;temperature;humidity
57056;BME280;42945;51.718;5.324;2023-04-27T00:01:39;101908.16;;;1.43;100.00
57056;BME280;42945;51.718;5.324;2023-04-27T00:04:05;101877.72;;;1.32;100.00
57056;BME280;42945;51.718;5.324;2023-04-27T00:06:31;101866.38;;;1.33;100.00
57056;BME280;42945;51.718;5.324;2023-04-27T00:08:56;101895.13;;;1.33;100.00
57056;BME280;42945;51.718;5.324;2023-04-27T00:11:23;101921.25;;;1.33;100.00
57056;BME280;42945;51.718;5.324;2023-04-27T00:13:48;101962.22;;;1.36;100.00
57056;BME280;42945;51.718;5.324;2023-04-27T00:16:14;101774.25;;;0.68;100.00
57056;BME280;42945;51.718;5.324;2023-04-27T00:18:39;101870.75;;;1.17;100.00
57056;BME280;42945;51.718;5.324;2023-04-27T00:21:04;101898.63;;;1.20;100.00
57056;BME280;42945;51.718;5.324;2023-04-27T00:23:30;101883.84;;;1.01;100.00
57056;BME280;42945;51.718;5.324;2023-04-27T00:25:55;101889.94;;;1.06;100.00
57056;BME280;42945;51.718;5.324;2023-04-27T00:28:20;101827.25;;;1.03;100.00
57056;BME280;42945;51.718;5.324;2023-04-27T00:30:45;101943.06;;;1.12;100.00
57056;BME280;42945;51.718;5.324;2023-04-27T00:33:12;101804.69;;;0.66;100.00
57056;BME280;42945;51.718;5.324;2023-04-27T00:35:38;101936.97;;;1.30;100.00
57056;BME280;42945;51.718;5.324;2023-04-27T00:38:03;101945.66;;;1.32;100.00
57056;BME280;42945;51.718;5.324;2023-04-27T00:40:28;101850.75;;;1.03;100.00
57056;BME280;42945;51.718;5.324;2023-04-27T00:42:54;101939.59;;;0.98;100.00
57056;BME280;42945;51.718;5.324;2023-04-27T00:45:19;101868.19;;;1.01;100.00
57056;BME280;42945;51.718;5.324;2023-04-27T00:47:45;101912.59;;;0.94;100.00
57056;BME280;42945;51.718;5.324;2023-04-27T00:50:10;101796.00;;;0.26;100.00
57056;BME280;42945;51.718;5.324;2023-04-27T00:52:37;101922.16;;;1.00;100.00
57056;BME280;42945;51.718;5.324;2023-04-27T00:55:03;101891.69;;;0.94;100.00
57056;BME280;42945;51.718;5.324;2023-04-27T00:57:29;101883.88;;;0.90;100.00
57056;BME280;42945;51.718;5.324;2023-04-27T00:59:54;101887.38;;;0.86;100.00
57056;BME280;42945;51.718;5.324;2023-04-27T01:02:20;101863.84;;;0.81;100.00
57056;BME280;42945;51.718;5.324;2023-04-27T01:04:47;101842.09;;;0.41;100.00
57056;BME280;42945;51.718;5.324;2023-04-27T01:07:12;101923.03;;;0.77;100.00
57056;BME280;42945;51.718;5.324;2023-04-27T01:09:40;101926.53;;;0.83;100.00
57056;BME280;42945;51.718;5.324;2023-04-27T01:12:05;101913.47;;;0.70;100.00
57056;BME280;42945;51.718;5.324;2023-04-27T01:14:31;102042.34;;;1.43;100.00
57056;BME280;42945;51.718;5.324;2023-04-27T01:16:56;101863.88;;;0.72;100.00
57056;BME280;42945;51.718;5.324;2023-04-27T01:19:22;101913.47;;;0.69;100.00
57056;BME280;42945;51.718;5.324;2023-04-27T01:21:47;101768.16;;;0.03;100.00
57056;BME280;42945;51.718;5.324;2023-04-27T01:24:12;101884.75;;;0.63;100.00
57056;BME280;42945;51.718;5.324;2023-04-27T01:26:38;101888.25;;;0.80;100.00
57056;BME280;42945;51.718;5.324;2023-04-27T01:29:04;101903.91;;;0.66;100.00
57056;BME280;42945;51.718;5.324;2023-04-27T01:31:30;101921.31;;;0.56;100.00
57056;BME280;42945;51.718;5.324;2023-04-27T01:33:56;101849.06;;;0.48;100.00
57056;BME280;42945;51.718;5.324;2023-04-27T01:36:21;101870.81;;;0.39;100.00
57056;BME280;42945;51.718;5.324;2023-04-27T01:38:46;101822.91;;;-0.06;100.00
57056;BME280;42945;51.718;5.324;2023-04-27T01:41:12;101876.91;;;0.58;100.00
57056;BME280;42945;51.718;5.324;2023-04-27T01:43:37;101885.63;;;0.49;100.00
57056;BME280;42945;51.718;5.324;2023-04-27T01:46:11;101766.44;;;0.02;100.00
57056;BME280;42945;51.718;5.324;2023-04-27T01:48:37;101697.69;;;-0.57;100.00
57056;BME280;42945;51.718;5.324;2023-04-27T01:51:04;101874.31;;;0.73;100.00
57056;BME280;42945;51.718;5.324;2023-04-27T01:53:30;101919.56;;;0.86;100.00
57056;BME280;42945;51.718;5.324;2023-04-27T01:55:57;101783.84;;;0.22;100.00
57056;BME280;42945;51.718;5.324;2023-04-27T01:58:26;101768.19;;;0.22;100.00
57056;BME280;42945;51.718;5.324;2023-04-27T02:00:51;101772.50;;;0.13;100.00
57056;BME280;42945;51.718;5.324;2023-04-27T02:03:16;101884.75;;;0.78;100.00
57056;BME280;42945;51.718;5.324;2023-04-27T02:05:42;101779.50;;;0.10;100.00
57056;BME280;42945;51.718;5.324;2023-04-27T02:08:07;101742.09;;;0.05;100.00
57056;BME280;42945;51.718;5.324;2023-04-27T02:10:34;101882.16;;;0.72;100.00
57056;BME280;42945;51.718;5.324;2023-04-27T02:12:59;101893.47;;;0.74;100.00
57056;BME280;42945;51.718;5.324;2023-04-27T02:15:24;101767.31;;;0.16;100.00
57056;BME280;42945;51.718;5.324;2023-04-27T02:17:50;101890.84;;;0.74;100.00
57056;BME280;42945;51.718;5.324;2023-04-27T02:20:15;94791.28;;;-41.90;100.00
57056;BME280;42945;51.718;5.324;2023-04-27T02:22:41;101895.19;;;0.81;100.00
57056;BME280;42945;51.718;5.324;2023-04-27T02:25:08;101876.91;;;0.73;100.00
57056;BME280;42945;51.718;5.324;2023-04-27T02:27:36;101836.03;;;0.66;100.00
57056;BME280;42945;51.718;5.324;2023-04-27T02:30:06;101908.25;;;0.73;100.00
57056;BME280;42945;51.718;5.324;2023-04-27T02:32:32;101739.47;;;0.08;100.00
57056;BME280;42945;51.718;5.324;2023-04-27T02:34:57;101832.53;;;0.59;100.00
57056;BME280;42945;51.718;5.324;2023-04-27T02:37:23;101893.47;;;0.65;100.00
57056;BME280;42945;51.718;5.324;2023-04-27T02:39:48;101855.16;;;0.64;100.00
57056;BME280;42945;51.718;5.324;2023-04-27T02:42:13;101736.84;;;-0.12;100.00
57056;BME280;42945;51.718;5.324;2023-04-27T02:44:40;101865.59;;;0.73;100.00
57056;BME280;42945;51.718;5.324;2023-04-27T02:47:05;101743.81;;;-0.14;100.00
57056;BME280;42945;51.718;5.324;2023-04-27T02:49:30;101760.28;;;-0.34;100.00
57056;BME280;42945;51.718;5.324;2023-04-27T02:51:56;101858.63;;;0.52;100.00
57056;BME280;42945;51.718;5.324;2023-04-27T02:54:21;101865.63;;;0.54;100.00
57056;BME280;42945;51.718;5.324;2023-04-27T02:56:46;101865.59;;;0.50;100.00
57056;BME280;42945;51.718;5.324;2023-04-27T02:59:11;101874.28;;;0.81;100.00
57056;BME280;42945;51.718;5.324;2023-04-27T03:01:37;101794.28;;;0.58;100.00
57056;BME280;42945;51.718;5.324;2023-04-27T03:04:02;101618.66;;;-0.67;100.00
57056;BME280;42945;51.718;5.324;2023-04-27T03:06:27;101809.00;;;0.06;100.00
57056;BME280;42945;51.718;5.324;2023-04-27T03:08:54;101876.03;;;0.51;100.00
57056;BME280;42945;51.718;5.324;2023-04-27T03:11:19;101859.50;;;0.60;100.00
57056;BME280;42945;51.718;5.324;2023-04-27T03:13:44;101830.78;;;0.46;100.00
57056;BME280;42945;51.718;5.324;2023-04-27T03:16:10;101916.94;;;0.75;100.00
57056;BME280;42945;51.718;5.324;2023-04-27T03:18:36;101925.66;;;1.13;100.00
57056;BME280;42945;51.718;5.324;2023-04-27T03:21:09;101863.00;;;0.56;100.00
57056;BME280;42945;51.718;5.324;2023-04-27T03:23:35;101889.09;;;0.59;100.00
57056;BME280;42945;51.718;5.324;2023-04-27T03:26:05;101765.56;;;-0.02;100.00
57056;BME280;42945;51.718;5.324;2023-04-27T03:28:30;101922.19;;;0.66;100.00
57056;BME280;42945;51.718;5.324;2023-04-27T03:30:56;101883.00;;;0.62;100.00
57056;BME280;42945;51.718;5.324;2023-04-27T03:33:21;101848.19;;;0.32;100.00
57056;BME280;42945;51.718;5.324;2023-04-27T03:35:54;101863.84;;;0.29;100.00
57056;BME280;42945;51.718;5.324;2023-04-27T03:38:20;101849.94;;;0.30;100.00
57056;BME280;42945;51.718;5.324;2023-04-27T03:40:45;101772.47;;;-0.30;100.00
57056;BME280;42945;51.718;5.324;2023-04-27T03:43:10;101894.28;;;0.27;100.00
57056;BME280;42945;51.718;5.324;2023-04-27T03:45:36;101886.44;;;0.28;100.00
57056;BME280;42945;51.718;5.324;2023-04-27T03:48:01;101878.63;;;0.21;100.00
57056;BME280;42945;51.718;5.324;2023-04-27T03:50:27;101848.16;;;0.21;100.00
57056;BME280;42945;51.718;5.324;2023-04-27T03:52:52;101867.28;;;0.11;100.00
57056;BME280;42945;51.718;5.324;2023-04-27T03:55:17;101848.19;;;0.23;100.00
57056;BME280;42945;51.718;5.324;2023-04-27T03:57:43;101889.91;;;0.23;100.00
57056;BME280;42945;51.718;5.324;2023-04-27T04:00:08;101898.66;;;0.29;100.00
57056;BME280;42945;51.718;5.324;2023-04-27T04:02:38;101860.31;;;0.11;100.00
57056;BME280;42945;51.718;5.324;2023-04-27T04:05:04;101859.47;;;0.11;100.00
57056;BME280;42945;51.718;5.324;2023-04-27T04:07:29;101887.28;;;0.09;100.00
57056;BME280;42945;51.718;5.324;2023-04-27T04:09:55;101753.28;;;-0.56;100.00
57056;BME280;42945;51.718;5.324;2023-04-27T04:12:20;101788.84;;;-0.65;100.00
57056;BME280;42945;51.718;5.324;2023-04-27T04:14:45;101856.84;;;0.08;100.00
57056;BME280;42945;51.718;5.324;2023-04-27T04:17:13;101914.22;;;0.03;100.00
57056;BME280;42945;51.718;5.324;2023-04-27T04:19:38;101842.06;;;0.04;100.00
57056;BME280;42945;51.718;5.324;2023-04-27T04:22:04;101878.53;;;-0.04;100.00
57056;BME280;42945;51.718;5.324;2023-04-27T04:24:29;101865.47;;;-0.16;100.00
57056;BME280;42945;51.718;5.324;2023-04-27T04:26:54;101879.41;;;-0.11;100.00
57056;BME280;42945;51.718;5.324;2023-04-27T04:29:21;101923.75;;;-0.07;100.00
57056;BME280;42945;51.718;5.324;2023-04-27T04:31:46;101912.44;;;-0.10;100.00
57056;BME280;42945;51.718;5.324;2023-04-27T04:34:11;101788.00;;;-0.59;100.00
57056;BME280;42945;51.718;5.324;2023-04-27T04:36:38;101918.59;;;0.13;100.00
57056;BME280;42945;51.718;5.324;2023-04-27T04:39:05;101915.97;;;0.13;100.00
57056;BME280;42945;51.718;5.324;2023-04-27T04:41:31;101832.34;;;-0.51;100.00
57056;BME280;42945;51.718;5.324;2023-04-27T04:43:57;101882.06;;;0.15;100.00
57056;BME280;42945;51.718;5.324;2023-04-27T04:46:22;101907.31;;;0.25;100.00
57056;BME280;42945;51.718;5.324;2023-04-27T04:48:49;101909.06;;;0.25;100.00
57056;BME280;42945;51.718;5.324;2023-04-27T04:51:15;101923.00;;;0.37;100.00
57056;BME280;42945;51.718;5.324;2023-04-27T04:53:41;101962.16;;;0.36;100.00
57056;BME280;42945;51.718;5.324;2023-04-27T04:56:07;101807.22;;;-0.31;100.00
57056;BME280;42945;51.718;5.324;2023-04-27T04:58:33;101912.53;;;0.28;100.00
57056;BME280;42945;51.718;5.324;2023-04-27T05:00:58;101793.31;;;-0.24;100.00
57056;BME280;42945;51.718;5.324;2023-04-27T05:03:23;101946.53;;;0.70;100.00
57056;BME280;42945;51.718;5.324;2023-04-27T05:05:49;101921.28;;;0.67;100.00
57056;BME280;42945;51.718;5.324;2023-04-27T05:08:14;101794.25;;;0.03;100.00
57056;BME280;42945;51.718;5.324;2023-04-27T05:10:41;101855.13;;;0.17;100.00
57056;BME280;42945;51.718;5.324;2023-04-27T05:13:06;101925.66;;;0.81;100.00
57056;BME280;42945;51.718;5.324;2023-04-27T05:15:31;101918.69;;;1.04;100.00
57056;BME280;42945;51.718;5.324;2023-04-27T05:17:57;101913.47;;;0.98;100.00
57056;BME280;42945;51.718;5.324;2023-04-27T05:20:22;101934.34;;;0.96;100.00
57056;BME280;42945;51.718;5.324;2023-04-27T05:22:47;101902.97;;;1.35;100.00
57056;BME280;42945;51.718;5.324;2023-04-27T05:25:12;101933.47;;;1.28;100.00
57056;BME280;42945;51.718;5.324;2023-04-27T05:27:38;101930.84;;;1.34;100.00
57056;BME280;42945;51.718;5.324;2023-04-27T05:30:03;101914.28;;;1.42;100.00
57056;BME280;42945;51.718;5.324;2023-04-27T05:32:29;101922.91;;;1.73;100.00
57056;BME280;42945;51.718;5.324;2023-04-27T05:34:54;101910.72;;;1.67;100.00
57056;BME280;42945;51.718;5.324;2023-04-27T05:37:20;130740.28;;;169.48;100.00
57056;BME280;42945;51.718;5.324;2023-04-27T05:39:45;101884.44;;;1.95;100.00
57056;BME280;42945;51.718;5.324;2023-04-27T05:42:10;101934.13;;;1.96;100.00
57056;BME280;42945;51.718;5.324;2023-04-27T05:44:35;101923.63;;;2.04;100.00
57056;BME280;42945;51.718;5.324;2023-04-27T05:47:01;101911.47;;;1.99;100.00
57056;BME280;42945;51.718;5.324;2023-04-27T05:49:26;101906.16;;;2.11;100.00
57056;BME280;42945;51.718;5.324;2023-04-27T05:51:51;101897.38;;;2.21;100.00
57056;BME280;42945;51.718;5.324;2023-04-27T05:54:17;101932.19;;;2.37;100.00
57056;BME280;42945;51.718;5.324;2023-04-27T05:56:43;101813.00;;;1.82;100.00
57056;BME280;42945;51.718;5.324;2023-04-27T05:59:08;101940.72;;;2.65;100.00
57056;BME280;42945;51.718;5.324;2023-04-27T06:01:35;101875.28;;;2.64;100.00
57056;BME280;42945;51.718;5.324;2023-04-27T06:04:00;101873.50;;;2.66;100.00
57056;BME280;42945;51.718;5.324;2023-04-27T06:06:26;101892.44;;;2.97;100.00
57056;BME280;42945;51.718;5.324;2023-04-27T06:08:55;130778.47;;;171.16;100.00
57056;BME280;42945;51.718;5.324;2023-04-27T06:11:20;101872.97;;;3.20;100.00
57056;BME280;42945;51.718;5.324;2023-04-27T06:13:46;101849.38;;;3.24;100.00
57056;BME280;42945;51.718;5.324;2023-04-27T06:16:12;101900.72;;;3.41;100.00
57056;BME280;42945;51.718;5.324;2023-04-27T06:18:37;101860.53;;;3.43;100.00
57056;BME280;42945;51.718;5.324;2023-04-27T06:21:02;101892.50;;;3.74;100.00
57056;BME280;42945;51.718;5.324;2023-04-27T06:23:28;101887.94;;;3.87;100.00
57056;BME280;42945;51.718;5.324;2023-04-27T06:25:53;101789.25;;;3.09;100.00
57056;BME280;42945;51.718;5.324;2023-04-27T06:28:19;101876.38;;;4.04;100.00
57056;BME280;42945;51.718;5.324;2023-04-27T06:30:44;101933.28;;;4.00;100.00
57056;BME280;42945;51.718;5.324;2023-04-27T06:33:09;101894.88;;;3.93;100.00
57056;BME280;42945;51.718;5.324;2023-04-27T06:35:35;101769.72;;;3.34;100.00
57056;BME280;42945;51.718;5.324;2023-04-27T06:38:00;101764.25;;;3.51;100.00
57056;BME280;42945;51.718;5.324;2023-04-27T06:40:25;101833.94;;;4.31;100.00
57056;BME280;42945;51.718;5.324;2023-04-27T06:42:51;101851.47;;;4.29;100.00
57056;BME280;42945;51.718;5.324;2023-04-27T06:45:17;101720.56;;;4.06;100.00
57056;BME280;42945;51.718;5.324;2023-04-27T06:47:42;101814.31;;;3.98;100.00
57056;BME280;42945;51.718;5.324;2023-04-27T06:50:08;101892.06;;;4.67;100.00
57056;BME280;42945;51.718;5.324;2023-04-27T06:52:33;101809.63;;;4.73;100.00
57056;BME280;42945;51.718;5.324;2023-04-27T06:54:59;101869.78;;;4.88;100.00
57056;BME280;42945;51.718;5.324;2023-04-27T06:57:24;101895.91;;;4.98;100.00
57056;BME280;42945;51.718;5.324;2023-04-27T06:59:50;101840.56;;;5.05;100.00
57056;BME280;42945;51.718;5.324;2023-04-27T07:02:15;101876.34;;;5.14;100.00
57056;BME280;42945;51.718;5.324;2023-04-27T07:04:40;101860.31;;;5.26;100.00
57056;BME280;42945;51.718;5.324;2023-04-27T07:07:07;101868.06;;;5.36;100.00
57056;BME280;42945;51.718;5.324;2023-04-27T07:09:32;101842.97;;;5.61;100.00
57056;BME280;42945;51.718;5.324;2023-04-27T07:11:57;101740.56;;;5.10;100.00
57056;BME280;42945;51.718;5.324;2023-04-27T07:14:25;101868.84;;;5.83;100.00
57056;BME280;42945;51.718;5.324;2023-04-27T07:16:50;101865.97;;;5.94;100.00
57056;BME280;42945;51.718;5.324;2023-04-27T07:19:16;101871.78;;;6.11;100.00
57056;BME280;42945;51.718;5.324;2023-04-27T07:21:41;101881.59;;;6.03;100.00
57056;BME280;42945;51.718;5.324;2023-04-27T07:24:06;101711.69;;;5.49;100.00
57056;BME280;42945;51.718;5.324;2023-04-27T07:26:32;101898.47;;;6.35;100.00
57056;BME280;42945;51.718;5.324;2023-04-27T07:28:58;101877.22;;;6.41;100.00
57056;BME280;42945;51.718;5.324;2023-04-27T07:31:23;101829.81;;;6.41;100.00
57056;BME280;42945;51.718;5.324;2023-04-27T07:33:48;101786.06;;;5.95;100.00
57056;BME280;42945;51.718;5.324;2023-04-27T07:36:14;101863.13;;;6.79;100.00
57056;BME280;42945;51.718;5.324;2023-04-27T07:38:39;101837.38;;;6.89;100.00
57056;BME280;42945;51.718;5.324;2023-04-27T07:41:04;101962.88;;;7.32;100.00
57056;BME280;42945;51.718;5.324;2023-04-27T07:43:31;101850.72;;;6.83;100.00
57056;BME280;42945;51.718;5.324;2023-04-27T07:45:56;101741.16;;;6.38;100.00
57056;BME280;42945;51.718;5.324;2023-04-27T07:48:23;101824.91;;;7.58;100.00
57056;BME280;42945;51.718;5.324;2023-04-27T07:50:48;101851.19;;;7.32;100.00
57056;BME280;42945;51.718;5.324;2023-04-27T07:53:13;101899.03;;;7.19;100.00
57056;BME280;42945;51.718;5.324;2023-04-27T07:55:39;101875.72;;;7.66;100.00
57056;BME280;42945;51.718;5.324;2023-04-27T07:58:05;101831.22;;;7.53;100.00
57056;BME280;42945;51.718;5.324;2023-04-27T08:00:30;101740.44;;;6.97;100.00
57056;BME280;42945;51.718;5.324;2023-04-27T08:02:56;101872.63;;;8.10;100.00
57056;BME280;42945;51.718;5.324;2023-04-27T08:05:21;101717.50;;;7.60;100.00
57056;BME280;42945;51.718;5.324;2023-04-27T08:07:46;101855.72;;;8.45;100.00
57056;BME280;42945;51.718;5.324;2023-04-27T08:10:13;101843.44;;;8.15;100.00
57056;BME280;42945;51.718;5.324;2023-04-27T08:12:38;101842.84;;;8.33;100.00
57056;BME280;42945;51.718;5.324;2023-04-27T08:15:04;101894.84;;;8.33;100.00
57056;BME280;42945;51.718;5.324;2023-04-27T08:17:31;101917.75;;;8.62;100.00
57056;BME280;42945;51.718;5.324;2023-04-27T08:19:56;101730.47;;;7.38;100.00
57056;BME280;42945;51.718;5.324;2023-04-27T08:22:22;101859.44;;;8.38;100.00
57056;BME280;42945;51.718;5.324;2023-04-27T08:24:47;101897.09;;;8.46;100.00
57056;BME280;42945;51.718;5.324;2023-04-27T08:27:12;101857.06;;;8.59;100.00
57056;BME280;42945;51.718;5.324;2023-04-27T08:29:38;101775.56;;;8.17;100.00
57056;BME280;42945;51.718;5.324;2023-04-27T08:32:03;101880.03;;;9.09;100.00
57056;BME280;42945;51.718;5.324;2023-04-27T08:34:29;101736.84;;;8.42;100.00
57056;BME280;42945;51.718;5.324;2023-04-27T08:36:55;101733.06;;;8.23;100.00
57056;BME280;42945;51.718;5.324;2023-04-27T08:39:22;101722.78;;;8.40;100.00
57056;BME280;42945;51.718;5.324;2023-04-27T08:41:47;101757.38;;;9.11;100.00
57056;BME280;42945;51.718;5.324;2023-04-27T08:44:12;101869.44;;;8.83;100.00
57056;BME280;42945;51.718;5.324;2023-04-27T08:46:38;101898.25;;;9.18;100.00
57056;BME280;42945;51.718;5.324;2023-04-27T08:49:03;101842.75;;;8.64;100.00
57056;BME280;42945;51.718;5.324;2023-04-27T08:51:31;101687.09;;;9.02;100.00
57056;BME280;42945;51.718;5.324;2023-04-27T08:53:57;101812.19;;;9.78;100.00
57056;BME280;42945;51.718;5.324;2023-04-27T08:56:25;101795.81;;;9.67;100.00
57056;BME280;42945;51.718;5.324;2023-04-27T08:58:51;101890.75;;;8.79;100.00
57056;BME280;42945;51.718;5.324;2023-04-27T09:01:17;101750.66;;;8.76;100.00
57056;BME280;42945;51.718;5.324;2023-04-27T09:03:43;101841.03;;;9.62;100.00
57056;BME280;42945;51.718;5.324;2023-04-27T09:06:11;101731.81;;;9.10;99.19
57056;BME280;42945;51.718;5.324;2023-04-27T09:08:49;101848.47;;;10.22;99.51
57056;BME280;42945;51.718;5.324;2023-04-27T09:11:27;101834.88;;;10.08;100.00
57056;BME280;42945;51.718;5.324;2023-04-27T09:13:53;101871.56;;;9.73;98.22
57056;BME280;42945;51.718;5.324;2023-04-27T09:16:23;101859.78;;;10.03;93.05
57056;BME280;42945;51.718;5.324;2023-04-27T09:18:49;101844.47;;;9.88;87.52
57056;BME280;42945;51.718;5.324;2023-04-27T09:21:25;101681.94;;;9.67;86.60
57056;BME280;42945;51.718;5.324;2023-04-27T09:23:52;101866.13;;;9.99;88.02
57056;BME280;42945;51.718;5.324;2023-04-27T09:26:20;101734.91;;;9.21;86.12
57056;BME280;42945;51.718;5.324;2023-04-27T09:28:49;101830.72;;;10.24;87.37
57056;BME280;42945;51.718;5.324;2023-04-27T09:31:16;101837.13;;;10.62;84.25
57056;BME280;42945;51.718;5.324;2023-04-27T09:33:42;101826.53;;;10.62;83.58
57056;BME280;42945;51.718;5.324;2023-04-27T09:36:08;101819.50;;;10.82;83.81
57056;BME280;42945;51.718;5.324;2023-04-27T09:38:34;101846.13;;;10.58;83.51
57056;BME280;42945;51.718;5.324;2023-04-27T09:41:00;101860.09;;;11.65;84.09
57056;BME280;42945;51.718;5.324;2023-04-27T09:43:26;101687.72;;;9.77;76.81
57056;BME280;42945;51.718;5.324;2023-04-27T09:45:53;101831.19;;;10.12;73.25
57056;BME280;42945;51.718;5.324;2023-04-27T09:48:21;101980.56;;;12.05;76.13
57056;BME280;42945;51.718;5.324;2023-04-27T09:50:48;101794.88;;;10.78;69.93
57056;BME280;42945;51.718;5.324;2023-04-27T09:53:16;101807.28;;;10.78;68.79
57056;BME280;42945;51.718;5.324;2023-04-27T10:01:25;101819.97;;;10.92;63.81
57056;BME280;42945;51.718;5.324;2023-04-27T10:09:42;101707.72;;;10.49;60.71
57056;BME280;42945;51.718;5.324;2023-04-27T10:12:19;101684.59;;;10.32;60.10
57056;BME280;42945;51.718;5.324;2023-04-27T10:15:12;101844.09;;;10.86;57.61
57056;BME280;42945;51.718;5.324;2023-04-27T10:17:47;101704.75;;;10.36;58.90
57056;BME280;42945;51.718;5.324;2023-04-27T10:20:12;101818.25;;;10.70;60.36
57056;BME280;42945;51.718;5.324;2023-04-27T10:22:47;101824.97;;;10.77;62.70
57056;BME280;42945;51.718;5.324;2023-04-27T10:25:27;101762.19;;;10.78;65.45
57056;BME280;42945;51.718;5.324;2023-04-27T10:28:00;101823.47;;;10.92;62.38
57056;BME280;42945;51.718;5.324;2023-04-27T10:30:32;101817.78;;;11.20;63.55
57056;BME280;42945;51.718;5.324;2023-04-27T10:32:59;101806.28;;;10.80;65.39
57056;BME280;42945;51.718;5.324;2023-04-27T10:35:43;101817.78;;;11.20;64.41
57056;BME280;42945;51.718;5.324;2023-04-27T10:38:20;101791.69;;;10.91;60.78
57056;BME280;42945;51.718;5.324;2023-04-27T10:40:55;101779.81;;;11.18;60.99
57056;BME280;42945;51.718;5.324;2023-04-27T10:43:29;101797.00;;;11.11;61.00
57056;BME280;42945;51.718;5.324;2023-04-27T10:46:06;101822.22;;;10.80;61.17
57056;BME280;42945;51.718;5.324;2023-04-27T10:48:31;101804.09;;;10.90;60.74
57056;BME280;42945;51.718;5.324;2023-04-27T10:50:57;101784.00;;;10.84;56.14
57056;BME280;42945;51.718;5.324;2023-04-27T10:53:25;101777.94;;;11.41;56.32
57056;BME280;42945;51.718;5.324;2023-04-27T10:55:54;101767.38;;;11.58;54.94
57056;BME280;42945;51.718;5.324;2023-04-27T10:58:23;101659.72;;;11.13;56.14
57056;BME280;42945;51.718;5.324;2023-04-27T11:00:48;101680.25;;;11.29;56.49
57056;BME280;42945;51.718;5.324;2023-04-27T11:03:32;101805.22;;;12.01;55.63
57056;BME280;42945;51.718;5.324;2023-04-27T11:06:03;101538.66;;;10.14;54.82
57056;BME280;42945;51.718;5.324;2023-04-27T11:08:29;101737.13;;;11.61;55.75
57056;BME280;42945;51.718;5.324;2023-04-27T11:11:00;101702.25;;;10.93;55.50
57056;BME280;42945;51.718;5.324;2023-04-27T11:13:26;101775.16;;;11.04;54.53
57056;BME280;42945;51.718;5.324;2023-04-27T11:15:58;101787.94;;;11.15;53.41
57056;BME280;42945;51.718;5.324;2023-04-27T11:18:30;101740.00;;;11.18;53.36
57056;BME280;42945;51.718;5.324;2023-04-27T11:23:31;101655.41;;;11.30;55.51
57056;BME280;42945;51.718;5.324;2023-04-27T11:26:08;101623.78;;;11.06;54.50
57056;BME280;42945;51.718;5.324;2023-04-27T11:28:34;101837.88;;;12.59;53.00
57056;BME280;42945;51.718;5.324;2023-04-27T11:30:59;101836.28;;;12.37;51.56
57056;BME280;42945;51.718;5.324;2023-04-27T11:33:26;101742.88;;;11.71;51.34
57056;BME280;42945;51.718;5.324;2023-04-27T11:35:52;101772.81;;;11.74;53.92
57056;BME280;42945;51.718;5.324;2023-04-27T11:38:18;101755.41;;;11.86;53.60
57056;BME280;42945;51.718;5.324;2023-04-27T11:40:45;101671.97;;;11.35;51.44
57056;BME280;42945;51.718;5.324;2023-04-27T11:43:12;101815.56;;;12.61;51.86
57056;BME280;42945;51.718;5.324;2023-04-27T11:45:43;101711.06;;;12.06;51.76
57056;BME280;42945;51.718;5.324;2023-04-27T11:48:14;101701.72;;;12.33;51.28
57056;BME280;42945;51.718;5.324;2023-04-27T11:50:39;101642.19;;;11.65;50.10
57056;BME280;42945;51.718;5.324;2023-04-27T11:53:05;101638.50;;;12.04;49.36
57056;BME280;42945;51.718;5.324;2023-04-27T11:55:34;101731.97;;;12.48;48.92
57056;BME280;42945;51.718;5.324;2023-04-27T11:58:00;102150.06;;;12.80;49.54
57056;BME280;42945;51.718;5.324;2023-04-27T12:00:26;101733.97;;;12.45;50.62
57056;BME280;42945;51.718;5.324;2023-04-27T12:02:52;101702.81;;;12.64;50.38
57056;BME280;42945;51.718;5.324;2023-04-27T12:05:17;101616.91;;;12.45;49.70
57056;BME280;42945;51.718;5.324;2023-04-27T12:07:43;101711.19;;;12.90;51.42
57056;BME280;42945;51.718;5.324;2023-04-27T12:10:09;101718.47;;;12.86;50.46
57056;BME280;42945;51.718;5.324;2023-04-27T12:12:34;101624.31;;;12.55;47.79
57056;BME280;42945;51.718;5.324;2023-04-27T12:15:00;101706.31;;;13.47;49.16
57056;BME280;42945;51.718;5.324;2023-04-27T12:17:25;101728.22;;;12.87;49.97
57056;BME280;42945;51.718;5.324;2023-04-27T12:19:51;101584.34;;;12.89;47.82
57056;BME280;42945;51.718;5.324;2023-04-27T12:22:16;101652.00;;;13.80;48.36
57056;BME280;42945;51.718;5.324;2023-04-27T12:24:41;101740.59;;;13.85;50.90
57056;BME280;42945;51.718;5.324;2023-04-27T12:27:07;101681.94;;;13.22;47.02
57056;BME280;42945;51.718;5.324;2023-04-27T12:29:32;101692.38;;;13.58;49.01
57056;BME280;42945;51.718;5.324;2023-04-27T12:31:58;101578.34;;;13.17;48.20
57056;BME280;42945;51.718;5.324;2023-04-27T12:34:24;101646.72;;;13.64;45.25
57056;BME280;42945;51.718;5.324;2023-04-27T12:36:49;101688.16;;;13.70;44.47
57056;BME280;42945;51.718;5.324;2023-04-27T12:41:43;101671.28;;;13.85;45.83
57056;BME280;42945;51.718;5.324;2023-04-27T12:44:08;101571.38;;;12.83;43.70
57056;BME280;42945;51.718;5.324;2023-04-27T12:46:34;101698.59;;;13.09;44.50
57056;BME280;42945;51.718;5.324;2023-04-27T12:48:59;101708.88;;;13.65;45.32
57056;BME280;42945;51.718;5.324;2023-04-27T12:51:26;101703.09;;;14.18;45.83
57056;BME280;42945;51.718;5.324;2023-04-27T12:53:53;101550.50;;;13.23;42.91
57056;BME280;42945;51.718;5.324;2023-04-27T12:56:18;101707.78;;;13.69;44.53
57056;BME280;42945;51.718;5.324;2023-04-27T12:58:43;101703.88;;;13.90;44.33
57056;BME280;42945;51.718;5.324;2023-04-27T13:01:09;101675.63;;;13.56;43.71
57056;BME280;42945;51.718;5.324;2023-04-27T13:03:46;101556.78;;;13.06;43.78